Time;durP1;ratioP1;P1;durP2;ratioP2;P2;SDS_P1;SDS_P2;PMS_P1;PMS_P2;Temp;Humidity;BMP_temperature;BMP_pressure;BME280_temperature;BME280_humidity;BME280_pressure;Samples;Min_cycle;Max_cycle;Signal;HPM_P1;HPM_P2
2021/06/30 00:01:29;;;;;;;9.20;6.93;;;15.80;99.90;;;;;;5050627;28;20468;-66
2021/06/30 00:03:58;;;;;;;6.90;5.43;;;15.80;99.90;;;;;;5050715;28;20452;-65
2021/06/30 00:06:25;;;;;;;8.20;6.30;;;15.80;99.90;;;;;;5050456;28;20455;-65
2021/06/30 00:08:54;;;;;;;9.40;7.10;;;15.80;99.90;;;;;;5050324;28;20476;-65
2021/06/30 00:11:21;;;;;;;9.03;6.47;;;15.80;99.90;;;;;;5050232;28;20480;-68
2021/06/30 00:13:48;;;;;;;7.63;5.20;;;15.80;99.90;;;;;;5050184;28;20451;-66
2021/06/30 00:16:16;;;;;;;6.93;5.73;;;15.90;99.90;;;;;;5050810;28;20913;-67
2021/06/30 00:18:43;;;;;;;10.83;5.93;;;15.90;99.90;;;;;;5050839;28;20530;-64
2021/06/30 00:21:12;;;;;;;6.77;5.37;;;16.00;99.90;;;;;;5052033;28;20899;-64
2021/06/30 00:23:39;;;;;;;8.27;6.07;;;16.00;99.90;;;;;;5050321;28;20452;-64
2021/06/30 00:26:05;;;;;;;12.30;6.80;;;16.10;99.90;;;;;;5049876;28;20867;-66
2021/06/30 00:28:32;;;;;;;12.00;6.17;;;16.10;99.90;;;;;;5049908;28;20483;-65
2021/06/30 00:30:59;;;;;;;9.53;5.97;;;16.10;99.90;;;;;;5049458;28;20472;-64
2021/06/30 00:33:26;;;;;;;7.63;6.53;;;16.20;99.90;;;;;;5050055;28;20443;-66
2021/06/30 00:35:53;;;;;;;8.00;6.53;;;16.20;99.90;;;;;;5049644;28;20448;-64
2021/06/30 00:38:21;;;;;;;7.03;5.10;;;16.20;99.90;;;;;;5049792;28;20443;-64
2021/06/30 00:40:48;;;;;;;7.40;4.20;;;16.20;99.90;;;;;;5049055;28;20471;-64
2021/06/30 00:43:15;;;;;;;4.00;3.50;;;16.20;99.90;;;;;;5050337;28;20450;-64
2021/06/30 00:45:42;;;;;;;8.10;4.00;;;16.20;99.90;;;;;;5050591;28;20539;-64
2021/06/30 00:48:09;;;;;;;4.50;2.97;;;16.20;99.90;;;;;;5049725;28;20476;-68
2021/06/30 00:50:36;;;;;;;4.60;3.43;;;16.10;99.90;;;;;;5049075;28;20478;-67
2021/06/30 00:53:03;;;;;;;6.33;2.60;;;16.10;99.90;;;;;;5049809;28;20531;-65
2021/06/30 00:55:31;;;;;;;4.40;2.90;;;16.20;99.90;;;;;;5049576;28;20455;-65
2021/06/30 00:57:58;;;;;;;4.83;2.53;;;16.20;99.90;;;;;;5049541;28;20440;-64
2021/06/30 01:00:25;;;;;;;3.90;2.73;;;16.20;99.90;;;;;;5048809;28;20474;-65
2021/06/30 01:02:52;;;;;;;3.57;2.03;;;16.20;99.90;;;;;;5049774;28;20444;-64
2021/06/30 01:05:19;;;;;;;3.60;2.37;;;16.10;99.90;;;;;;5049985;28;20463;-65
2021/06/30 01:07:46;;;;;;;5.30;2.43;;;16.00;99.90;;;;;;5049076;28;20535;-64
2021/06/30 01:10:13;;;;;;;7.73;2.93;;;16.00;99.90;;;;;;5048529;28;21112;-64
2021/06/30 01:12:42;;;;;;;4.90;2.50;;;15.90;99.90;;;;;;5049469;28;20934;-64
2021/06/30 01:15:11;;;;;;;11.10;3.20;;;16.00;99.90;;;;;;5047628;28;21053;-65
2021/06/30 01:17:38;;;;;;;3.47;2.50;;;15.90;99.90;;;;;;5049453;28;20534;-65
2021/06/30 01:20:07;;;;;;;5.13;2.37;;;15.90;99.90;;;;;;5048900;28;20555;-64
2021/06/30 01:22:34;;;;;;;3.30;1.70;;;15.90;99.90;;;;;;5048549;28;20908;-65
2021/06/30 01:25:02;;;;;;;3.63;2.17;;;15.90;99.90;;;;;;5049719;28;20958;-64
2021/06/30 01:27:33;;;;;;;3.87;2.20;;;15.90;99.90;;;;;;5049247;28;20534;-64
2021/06/30 01:30:00;;;;;;;4.63;2.23;;;15.90;99.90;;;;;;5048680;28;20494;-65
2021/06/30 01:32:27;;;;;;;5.30;1.97;;;15.90;99.90;;;;;;5049401;28;20964;-65
2021/06/30 01:34:53;;;;;;;3.70;2.13;;;15.90;99.90;;;;;;5049705;28;20470;-66
2021/06/30 01:37:20;;;;;;;4.30;1.73;;;15.90;99.90;;;;;;5049337;28;20448;-65
2021/06/30 01:39:47;;;;;;;3.37;1.90;;;15.90;99.90;;;;;;5048581;28;20472;-64
2021/06/30 01:42:16;;;;;;;2.53;1.67;;;16.00;99.90;;;;;;5049471;28;21012;-64
2021/06/30 01:44:42;;;;;;;3.07;1.53;;;15.90;99.90;;;;;;5049481;28;21042;-64
2021/06/30 01:47:09;;;;;;;2.60;1.80;;;15.90;99.90;;;;;;5049233;28;20448;-64
2021/06/30 01:49:40;;;;;;;3.67;1.77;;;15.90;99.90;;;;;;5052258;28;20896;-65
2021/06/30 01:52:07;;;;;;;3.03;1.80;;;15.90;99.90;;;;;;5053279;28;20509;-64
2021/06/30 01:54:34;;;;;;;3.27;1.60;;;15.90;99.90;;;;;;5053190;28;20444;-65
2021/06/30 01:57:00;;;;;;;3.20;1.77;;;15.80;99.90;;;;;;5052658;28;21049;-65
2021/06/30 01:59:29;;;;;;;3.10;1.40;;;15.80;99.90;;;;;;5052048;28;20460;-64
2021/06/30 02:01:56;;;;;;;3.20;1.43;;;15.80;99.90;;;;;;5052714;28;20481;-66
2021/06/30 02:04:23;;;;;;;11.00;1.57;;;15.70;99.90;;;;;;5052801;28;20986;-66
2021/06/30 02:06:49;;;;;;;2.43;1.20;;;15.70;99.90;;;;;;5052419;28;20535;-65
2021/06/30 02:09:16;;;;;;;3.50;1.10;;;15.60;99.90;;;;;;5051924;28;20484;-65
2021/06/30 02:11:43;;;;;;;4.00;1.53;;;15.60;99.90;;;;;;5052880;28;20458;-65
2021/06/30 02:14:11;;;;;;;6.60;1.87;;;15.60;99.90;;;;;;5052535;28;20538;-64
2021/06/30 02:16:39;;;;;;;3.23;1.53;;;15.50;99.90;;;;;;5052839;28;20491;-64
2021/06/30 02:19:06;;;;;;;2.50;1.30;;;15.40;99.90;;;;;;5052426;28;20452;-63
2021/06/30 02:21:34;;;;;;;2.63;1.37;;;15.40;99.90;;;;;;5052764;28;20436;-65
2021/06/30 02:24:01;;;;;;;5.13;1.57;;;15.30;99.90;;;;;;5052275;28;21238;-64
2021/06/30 02:26:28;;;;;;;7.20;1.70;;;15.20;99.90;;;;;;5051943;28;20962;-63
2021/06/30 02:28:56;;;;;;;4.73;1.30;;;15.20;99.90;;;;;;5051253;28;20574;-66
2021/06/30 02:31:23;;;;;;;4.87;1.40;;;15.20;99.90;;;;;;5051934;28;21182;-65
2021/06/30 02:33:52;;;;;;;3.37;1.30;;;15.10;99.90;;;;;;5052681;28;20451;-64
2021/06/30 02:36:20;;;;;;;2.40;1.40;;;15.00;99.90;;;;;;5051955;28;20440;-66
2021/06/30 02:38:47;;;;;;;3.63;1.20;;;15.00;99.90;;;;;;5052356;28;20516;-64
2021/06/30 02:41:14;;;;;;;3.33;1.40;;;14.90;99.90;;;;;;5051359;28;20973;-65
2021/06/30 02:43:42;;;;;;;5.23;1.70;;;14.90;99.90;;;;;;5052089;28;20530;-65
2021/06/30 02:46:09;;;;;;;4.17;2.20;;;14.90;99.90;;;;;;5051712;28;20468;-65
2021/06/30 02:48:36;;;;;;;2.67;1.63;;;14.90;99.90;;;;;;5051751;28;20579;-67
2021/06/30 02:51:04;;;;;;;2.00;0.90;;;14.80;99.90;;;;;;5051482;28;20503;-64
2021/06/30 02:53:31;;;;;;;2.77;1.27;;;14.80;99.90;;;;;;5052518;28;20458;-65
2021/06/30 02:56:00;;;;;;;3.37;1.30;;;14.80;99.90;;;;;;5051533;28;20992;-63
2021/06/30 02:58:27;;;;;;;3.47;1.70;;;14.80;99.90;;;;;;5051923;28;20539;-65
2021/06/30 03:00:53;;;;;;;2.47;1.30;;;14.70;99.90;;;;;;5050052;28;20464;-64
2021/06/30 03:03:20;;;;;;;2.53;1.33;;;14.70;99.90;;;;;;5052039;28;20531;-66
2021/06/30 03:05:47;;;;;;;2.00;0.90;;;14.70;99.90;;;;;;5051664;28;20551;-64
2021/06/30 03:08:15;;;;;;;3.13;1.50;;;14.70;99.90;;;;;;5051115;28;20456;-65
2021/06/30 03:10:43;;;;;;;1.90;0.80;;;14.70;99.90;;;;;;5050477;28;20986;-65
2021/06/30 03:13:10;;;;;;;2.00;1.10;;;14.60;99.90;;;;;;5051964;28;20440;-64
2021/06/30 03:15:36;;;;;;;2.70;0.70;;;14.60;99.90;;;;;;5051728;28;20821;-63
2021/06/30 03:18:03;;;;;;;2.87;1.20;;;14.60;99.90;;;;;;5052000;28;20452;-66
2021/06/30 03:20:30;;;;;;;2.87;1.17;;;14.60;99.90;;;;;;5050990;28;20462;-64
2021/06/30 03:22:57;;;;;;;2.53;1.07;;;14.60;99.90;;;;;;5051339;28;20462;-65
2021/06/30 03:25:26;;;;;;;1.90;0.70;;;14.50;99.90;;;;;;5051710;28;20450;-65
2021/06/30 03:27:53;;;;;;;2.07;0.97;;;14.50;99.90;;;;;;5051450;28;20456;-64
2021/06/30 03:30:20;;;;;;;2.90;0.70;;;14.50;99.90;;;;;;5050625;28;20570;-65
2021/06/30 03:32:47;;;;;;;2.03;0.90;;;14.50;99.90;;;;;;5051333;28;20446;-65
2021/06/30 03:35:14;;;;;;;3.63;0.80;;;14.50;99.90;;;;;;5051411;28;20446;-64
2021/06/30 03:37:41;;;;;;;2.30;0.70;;;14.50;99.90;;;;;;5051133;28;20444;-63
2021/06/30 03:40:09;;;;;;;1.90;0.70;;;14.50;99.90;;;;;;5049959;28;20675;-65
2021/06/30 03:42:37;;;;;;;1.80;0.60;;;14.50;99.90;;;;;;5051302;28;20452;-65
2021/06/30 03:45:05;;;;;;;1.90;0.70;;;14.50;99.90;;;;;;5051000;28;20451;-64
2021/06/30 03:47:32;;;;;;;1.80;0.57;;;14.40;99.90;;;;;;5050744;28;21017;-65
2021/06/30 03:49:59;;;;;;;1.97;0.80;;;14.40;99.90;;;;;;5050128;28;20498;-65
2021/06/30 03:52:26;;;;;;;2.27;0.80;;;14.50;99.90;;;;;;5051267;28;20539;-64
2021/06/30 03:54:54;;;;;;;3.87;0.70;;;14.50;99.90;;;;;;5051237;28;20881;-65
2021/06/30 03:57:21;;;;;;;1.80;0.73;;;14.50;99.90;;;;;;5050864;28;20486;-64
2021/06/30 03:59:49;;;;;;;3.83;0.90;;;14.40;99.90;;;;;;5050068;28;20470;-65
2021/06/30 04:02:16;;;;;;;2.07;0.80;;;14.40;99.90;;;;;;5050865;28;20480;-66
2021/06/30 04:04:44;;;;;;;2.00;0.90;;;14.50;99.90;;;;;;5050517;28;20524;-65
2021/06/30 04:07:11;;;;;;;2.50;0.77;;;14.50;99.90;;;;;;5049962;28;20491;-64
2021/06/30 04:09:38;;;;;;;2.00;0.87;;;14.50;99.90;;;;;;5049211;28;21009;-64
2021/06/30 04:12:06;;;;;;;2.23;1.00;;;14.50;99.90;;;;;;5050023;28;20436;-64
2021/06/30 04:14:33;;;;;;;2.03;0.73;;;14.50;99.90;;;;;;5050117;28;20472;-64
2021/06/30 04:17:01;;;;;;;2.07;0.80;;;14.60;99.90;;;;;;5049347;28;20945;-65
2021/06/30 04:19:28;;;;;;;3.17;0.87;;;14.50;99.90;;;;;;5048939;28;20464;-64
2021/06/30 04:21:55;;;;;;;2.07;1.00;;;14.50;99.90;;;;;;5049731;28;20535;-64
2021/06/30 04:24:22;;;;;;;3.97;1.50;;;14.50;99.90;;;;;;5049870;28;20526;-64
2021/06/30 04:26:49;;;;;;;2.43;0.90;;;14.40;99.90;;;;;;5049772;28;20525;-65
2021/06/30 04:29:15;;;;;;;2.20;0.93;;;14.40;99.90;;;;;;5048642;28;20471;-65
2021/06/30 04:31:42;;;;;;;2.13;0.90;;;14.40;99.90;;;;;;5049696;28;20440;-65
2021/06/30 04:34:10;;;;;;;1.90;0.83;;;14.40;99.90;;;;;;5049887;28;20535;-64
2021/06/30 04:36:37;;;;;;;3.10;1.20;;;14.40;99.90;;;;;;5049515;28;20446;-64
2021/06/30 04:39:04;;;;;;;2.30;1.00;;;14.50;99.90;;;;;;5048984;28;20814;-63
2021/06/30 04:41:31;;;;;;;2.17;0.80;;;14.50;99.90;;;;;;5049812;28;20468;-67
2021/06/30 04:43:58;;;;;;;2.87;0.97;;;14.50;99.90;;;;;;5049618;28;20527;-63
2021/06/30 04:46:25;;;;;;;1.80;0.70;;;14.50;99.90;;;;;;5049633;28;20535;-65
2021/06/30 04:48:52;;;;;;;2.00;0.83;;;14.50;99.90;;;;;;5050164;28;20800;-63
2021/06/30 04:51:21;;;;;;;2.57;0.90;;;14.50;99.90;;;;;;5049044;28;20546;-64
2021/06/30 04:53:50;;;;;;;2.10;0.90;;;14.60;99.90;;;;;;5050240;28;20444;-62
2021/06/30 04:56:16;;;;;;;3.40;0.80;;;14.70;99.90;;;;;;5049668;28;20456;-63
2021/06/30 04:58:43;;;;;;;2.10;0.80;;;14.70;99.90;;;;;;5049770;28;20438;-64
2021/06/30 05:01:10;;;;;;;1.90;0.80;;;14.70;99.90;;;;;;5049049;28;20464;-64
2021/06/30 05:03:37;;;;;;;3.33;1.30;;;14.80;99.90;;;;;;5045995;28;20992;-63
2021/06/30 05:06:04;;;;;;;2.13;0.80;;;14.80;99.90;;;;;;5047400;28;20487;-65
2021/06/30 05:08:32;;;;;;;2.30;0.90;;;14.90;99.90;;;;;;5047820;28;20492;-64
2021/06/30 05:10:59;;;;;;;1.80;0.60;;;14.90;99.90;;;;;;5044461;28;20494;-64
2021/06/30 05:13:26;;;;;;;3.00;0.80;;;15.00;99.90;;;;;;5045989;28;20452;-66
2021/06/30 05:15:52;;;;;;;2.10;0.80;;;15.10;99.90;;;;;;5046624;28;20877;-64
2021/06/30 05:18:19;;;;;;;2.50;1.10;;;15.30;99.90;;;;;;5047680;28;20447;-64
2021/06/30 05:20:47;;;;;;;3.07;1.10;;;15.40;99.90;;;;;;5048492;28;20525;-65
2021/06/30 05:23:14;;;;;;;2.30;1.43;;;15.60;99.90;;;;;;5051161;28;20530;-64
2021/06/30 05:25:42;;;;;;;2.10;0.77;;;15.70;99.90;;;;;;5051845;28;21109;-64
2021/06/30 05:28:09;;;;;;;2.67;0.60;;;15.70;99.90;;;;;;5052542;28;20996;-64
2021/06/30 05:30:36;;;;;;;2.03;0.87;;;15.70;99.90;;;;;;5052411;28;20591;-64
2021/06/30 05:33:03;;;;;;;2.23;0.60;;;15.70;99.90;;;;;;5053807;28;20444;-65
2021/06/30 05:35:30;;;;;;;1.93;0.60;;;15.70;99.90;;;;;;5053623;28;20448;-64
2021/06/30 05:37:57;;;;;;;3.87;0.83;;;15.80;99.90;;;;;;5052795;28;20444;-64
2021/06/30 05:40:24;;;;;;;3.20;0.60;;;15.80;99.90;;;;;;5052408;28;20471;-63
2021/06/30 05:42:54;;;;;;;2.27;0.63;;;15.80;99.90;;;;;;5053556;28;20546;-66
2021/06/30 05:45:22;;;;;;;3.90;0.90;;;15.80;99.90;;;;;;5053510;28;20454;-65
2021/06/30 05:47:50;;;;;;;4.27;0.80;;;15.90;99.90;;;;;;5052440;28;20534;-63
2021/06/30 05:50:19;;;;;;;2.27;0.80;;;16.10;99.90;;;;;;5052116;28;20494;-65
2021/06/30 05:52:46;;;;;;;3.13;0.70;;;16.30;99.90;;;;;;5052958;28;20816;-63
2021/06/30 05:55:13;;;;;;;2.40;1.10;;;16.40;99.90;;;;;;5052625;28;20900;-64
2021/06/30 05:57:40;;;;;;;2.93;0.80;;;16.50;99.90;;;;;;5051912;28;20524;-65
2021/06/30 06:00:11;;;;;;;2.83;0.80;;;16.70;99.90;;;;;;5051683;28;20469;-64
2021/06/30 06:02:38;;;;;;;1.93;0.80;;;16.80;99.90;;;;;;5052821;28;20527;-64
2021/06/30 06:05:06;;;;;;;2.10;0.70;;;16.90;99.90;;;;;;5052670;28;20443;-64
2021/06/30 06:07:33;;;;;;;2.33;0.87;;;17.10;99.90;;;;;;5052097;28;20531;-63
2021/06/30 06:10:00;;;;;;;2.30;1.00;;;17.10;99.90;;;;;;5051574;28;20483;-63
2021/06/30 06:12:27;;;;;;;1.80;0.70;;;17.00;99.90;;;;;;5052884;28;20579;-64
2021/06/30 06:14:54;;;;;;;3.30;0.77;;;16.90;99.90;;;;;;5052789;28;20490;-64
2021/06/30 06:17:22;;;;;;;2.20;1.00;;;17.00;99.90;;;;;;5052354;28;20448;-65
2021/06/30 06:19:49;;;;;;;2.30;0.80;;;17.10;99.90;;;;;;5051292;28;21016;-65
2021/06/30 06:22:16;;;;;;;2.20;0.90;;;17.30;99.90;;;;;;5052307;28;20539;-64
2021/06/30 06:24:43;;;;;;;2.53;1.00;;;17.40;99.90;;;;;;5052496;28;20506;-63
2021/06/30 06:27:10;;;;;;;2.00;0.80;;;17.30;99.90;;;;;;5052127;28;20452;-64
2021/06/30 06:29:39;;;;;;;2.40;1.00;;;17.20;99.90;;;;;;5051314;28;20575;-64
2021/06/30 06:32:06;;;;;;;1.90;0.80;;;17.30;99.90;;;;;;5052446;28;20973;-64
2021/06/30 06:34:34;;;;;;;2.20;0.90;;;17.20;99.90;;;;;;5051245;28;20482;-64
2021/06/30 06:37:02;;;;;;;2.70;1.00;;;17.10;99.90;;;;;;5052320;28;20539;-65
2021/06/30 06:39:30;;;;;;;2.10;0.90;;;17.10;99.90;;;;;;5051449;28;20480;-64
2021/06/30 06:41:57;;;;;;;2.20;0.80;;;17.00;99.90;;;;;;5052274;28;20984;-64
2021/06/30 06:44:24;;;;;;;2.87;0.90;;;17.00;99.90;;;;;;5052416;28;20531;-63
2021/06/30 06:46:51;;;;;;;2.27;0.77;;;17.00;99.90;;;;;;5051673;28;20536;-65
2021/06/30 06:49:18;;;;;;;2.77;0.73;;;17.00;99.90;;;;;;5050906;28;20522;-63
2021/06/30 06:51:46;;;;;;;2.57;0.93;;;17.10;99.90;;;;;;5052039;28;20450;-65
2021/06/30 06:54:13;;;;;;;2.60;0.70;;;17.20;99.90;;;;;;5052156;28;20850;-66
2021/06/30 06:56:39;;;;;;;3.40;0.90;;;17.30;99.90;;;;;;5051522;28;20452;-65
2021/06/30 06:59:06;;;;;;;3.30;0.80;;;17.20;99.90;;;;;;5050976;28;21135;-64
2021/06/30 07:01:33;;;;;;;1.90;0.60;;;17.30;99.90;;;;;;5051700;28;20460;-65
2021/06/30 07:04:00;;;;;;;2.20;0.83;;;17.60;99.90;;;;;;5051742;28;20570;-64
2021/06/30 07:06:27;;;;;;;1.90;0.90;;;18.00;99.90;;;;;;5051567;28;20961;-65
2021/06/30 07:08:55;;;;;;;3.80;0.83;;;18.50;99.90;;;;;;5051105;28;20538;-63
2021/06/30 07:11:22;;;;;;;2.20;0.70;;;18.80;99.90;;;;;;5051113;28;20484;-63
2021/06/30 07:13:49;;;;;;;3.70;0.97;;;19.00;99.90;;;;;;5049530;28;20462;-62
2021/06/30 07:16:16;;;;;;;1.90;0.67;;;18.90;99.90;;;;;;5050682;28;20447;-64
2021/06/30 07:18:43;;;;;;;2.90;0.80;;;18.60;99.90;;;;;;5050490;28;20466;-64
2021/06/30 07:21:10;;;;;;;1.80;0.60;;;18.40;99.90;;;;;;5050166;28;20934;-66
2021/06/30 07:23:38;;;;;;;2.10;0.97;;;18.30;99.90;;;;;;5051118;28;20504;-64
2021/06/30 07:26:06;;;;;;;1.97;0.60;;;18.40;99.90;;;;;;5050643;28;20454;-64
2021/06/30 07:28:33;;;;;;;2.00;0.60;;;18.60;99.90;;;;;;5050870;28;20451;-63
2021/06/30 07:31:00;;;;;;;1.90;0.60;;;18.70;99.90;;;;;;5049881;28;21164;-63
2021/06/30 07:33:27;;;;;;;2.00;0.80;;;18.90;99.90;;;;;;5051181;28;20890;-63
2021/06/30 07:35:54;;;;;;;2.97;0.70;;;19.00;99.90;;;;;;5050645;28;21011;-64
2021/06/30 07:38:21;;;;;;;2.20;0.60;;;19.00;99.90;;;;;;5050606;28;20463;-65
2021/06/30 07:40:47;;;;;;;2.00;0.77;;;19.10;99.90;;;;;;5049633;28;21056;-59
2021/06/30 07:43:16;;;;;;;2.93;0.60;;;18.70;99.90;;;;;;5050913;28;20462;-63
2021/06/30 07:45:43;;;;;;;2.20;0.60;;;18.70;99.90;;;;;;5050281;28;20450;-63
2021/06/30 07:48:09;;;;;;;2.10;0.50;;;19.10;99.90;;;;;;5050370;28;20517;-63
2021/06/30 07:50:37;;;;;;;1.80;0.70;;;19.50;99.90;;;;;;5049477;28;20570;-63
2021/06/30 07:53:03;;;;;;;1.80;0.57;;;19.70;99.90;;;;;;5050437;28;20542;-64
2021/06/30 07:55:31;;;;;;;2.60;0.90;;;19.70;99.90;;;;;;5050346;28;20448;-64
2021/06/30 07:57:58;;;;;;;2.30;0.80;;;19.80;99.90;;;;;;5050304;28;20476;-65
2021/06/30 08:00:26;;;;;;;2.40;0.50;;;19.80;99.90;;;;;;5049608;28;20543;-64
2021/06/30 08:02:53;;;;;;;2.07;0.80;;;19.80;99.90;;;;;;5050799;28;20527;-63
2021/06/30 08:05:20;;;;;;;3.23;1.10;;;19.60;99.90;;;;;;5050593;28;21171;-64
2021/06/30 08:07:47;;;;;;;2.40;0.60;;;19.60;99.90;;;;;;5050246;28;20459;-64
2021/06/30 08:10:15;;;;;;;2.90;0.60;;;19.60;99.90;;;;;;5049508;28;20594;-64
2021/06/30 08:12:42;;;;;;;1.90;0.60;;;20.00;99.90;;;;;;5050304;28;20452;-64
2021/06/30 08:15:10;;;;;;;1.90;0.60;;;20.10;99.90;;;;;;5050452;28;20531;-65
2021/06/30 08:17:39;;;;;;;1.80;0.50;;;20.50;99.90;;;;;;5050141;28;20452;-64
2021/06/30 08:20:07;;;;;;;1.80;0.50;;;21.00;99.90;;;;;;5049359;28;20464;-64
2021/06/30 08:22:34;;;;;;;1.87;0.60;;;21.40;99.90;;;;;;5050172;28;20440;-64
2021/06/30 08:25:01;;;;;;;1.87;0.70;;;21.60;99.90;;;;;;5050446;28;20474;-66
2021/06/30 08:27:28;;;;;;;3.03;0.77;;;21.20;99.90;;;;;;5050165;28;20816;-64
2021/06/30 08:29:57;;;;;;;5.00;0.83;;;21.10;99.90;;;;;;5049527;28;21045;-63
2021/06/30 08:32:25;;;;;;;1.80;0.60;;;20.80;99.90;;;;;;5050500;28;20458;-63
2021/06/30 08:34:54;;;;;;;1.80;0.60;;;20.20;99.90;;;;;;5050697;28;20455;-63
2021/06/30 08:37:22;;;;;;;1.90;0.70;;;19.80;99.90;;;;;;5049771;28;21157;-63
2021/06/30 08:39:50;;;;;;;2.07;0.90;;;19.50;99.90;;;;;;5049238;28;20482;-63
2021/06/30 08:42:17;;;;;;;2.10;0.80;;;19.30;99.90;;;;;;5050171;28;20477;-64
2021/06/30 08:44:44;;;;;;;2.10;0.80;;;19.30;99.90;;;;;;5050040;28;20487;-64
2021/06/30 08:47:12;;;;;;;2.00;0.67;;;19.00;99.90;;;;;;5049888;28;20563;-64
2021/06/30 08:49:42;;;;;;;4.10;1.00;;;18.60;99.90;;;;;;5049133;28;20558;-64
2021/06/30 08:52:12;;;;;;;4.30;2.90;;;18.30;99.90;;;;;;5049670;28;21039;-63
2021/06/30 08:54:41;;;;;;;2.40;0.70;;;18.20;99.90;;;;;;5049963;28;20895;-64
2021/06/30 08:57:09;;;;;;;2.77;1.23;;;18.00;99.90;;;;;;5048730;28;20466;-64
2021/06/30 08:59:36;;;;;;;1.90;0.70;;;18.00;99.90;;;;;;5049190;28;20475;-64
2021/06/30 09:02:04;;;;;;;1.80;0.60;;;17.90;99.90;;;;;;5049710;28;20454;-64
2021/06/30 09:04:32;;;;;;;1.70;0.50;;;17.80;99.90;;;;;;5049829;28;20443;-65
2021/06/30 09:06:59;;;;;;;4.07;1.00;;;17.80;99.90;;;;;;5049086;28;20446;-65
2021/06/30 09:09:27;;;;;;;2.10;0.70;;;18.00;99.90;;;;;;5048651;28;20443;-64
2021/06/30 09:11:55;;;;;;;1.80;0.50;;;18.50;99.90;;;;;;5049549;28;20486;-64
2021/06/30 09:14:25;;;;;;;2.40;0.70;;;19.00;99.90;;;;;;5049802;28;20536;-65
2021/06/30 09:19:56;;;;;;;2.07;0.60;;;19.30;99.90;;;;;;5046665;28;20448;-63
2021/06/30 09:22:25;;;;;;;1.97;0.60;;;19.20;99.90;;;;;;5049427;28;20530;-64
2021/06/30 09:24:55;;;;;;;1.83;0.60;;;19.20;99.90;;;;;;5049477;28;20493;-65
2021/06/30 09:27:39;;;;;;;2.37;0.60;;;19.10;99.90;;;;;;5049478;28;20542;-63
2021/06/30 09:30:08;;;;;;;2.13;0.80;;;19.20;99.90;;;;;;5048834;28;20463;-64
2021/06/30 09:32:35;;;;;;;1.80;0.60;;;19.30;99.90;;;;;;5049805;28;20958;-63
2021/06/30 09:35:23;;;;;;;2.37;0.70;;;19.20;99.90;;;;;;5049597;28;20886;-65
2021/06/30 09:37:50;;;;;;;2.00;0.60;;;19.00;99.90;;;;;;5049608;28;20543;-65
2021/06/30 09:40:19;;;;;;;2.27;0.60;;;19.00;99.90;;;;;;5048477;28;20538;-66
2021/06/30 09:42:46;;;;;;;1.80;0.60;;;19.50;99.90;;;;;;5049606;28;20502;-64
2021/06/30 09:45:15;;;;;;;2.93;0.70;;;20.20;99.90;;;;;;5049565;28;20538;-65
2021/06/30 09:47:43;;;;;;;1.80;0.60;;;20.60;99.90;;;;;;5049063;28;20470;-64
2021/06/30 09:50:11;;;;;;;2.00;0.50;;;20.70;99.90;;;;;;5048249;28;20470;-66
2021/06/30 09:52:40;;;;;;;1.90;0.50;;;21.10;99.90;;;;;;5049707;28;20479;-64
2021/06/30 09:55:23;;;;;;;1.80;0.50;;;21.50;99.90;;;;;;5049386;28;20448;-65
2021/06/30 09:57:50;;;;;;;1.90;0.57;;;21.80;99.90;;;;;;5049149;28;20929;-64
2021/06/30 10:00:18;;;;;;;2.03;0.63;;;21.90;99.90;;;;;;5048428;28;21006;-65
2021/06/30 10:02:48;;;;;;;1.70;0.50;;;21.70;99.90;;;;;;5049781;28;20493;-65
2021/06/30 10:05:15;;;;;;;4.20;0.60;;;21.30;99.90;;;;;;5049518;28;20448;-65
2021/06/30 10:07:42;;;;;;;1.90;0.60;;;20.90;99.90;;;;;;5049417;28;20443;-66
2021/06/30 10:10:10;;;;;;;5.13;0.70;;;20.70;99.90;;;;;;5051688;28;20460;-65
2021/06/30 10:12:39;;;;;;;1.90;0.60;;;20.10;99.90;;;;;;5053042;28;20479;-65
2021/06/30 10:15:08;;;;;;;1.97;0.67;;;19.40;99.90;;;;;;5053044;28;20452;-68
2021/06/30 10:17:36;;;;;;;2.70;0.80;;;18.60;99.90;;;;;;5052612;28;20446;-65
2021/06/30 10:20:05;;;;;;;2.40;0.97;;;18.20;99.90;;;;;;5052090;28;20520;-65
2021/06/30 10:22:31;;;;;;;2.03;0.60;;;18.30;99.90;;;;;;5053149;28;20548;-66
2021/06/30 10:24:59;;;;;;;2.53;0.80;;;18.50;99.90;;;;;;5052756;28;20578;-63
2021/06/30 10:27:27;;;;;;;2.73;0.70;;;19.20;99.90;;;;;;5052911;28;20479;-65
2021/06/30 10:29:56;;;;;;;1.90;0.60;;;20.20;99.90;;;;;;5051645;28;20594;-64
2021/06/30 10:32:24;;;;;;;1.97;0.63;;;20.60;99.90;;;;;;5052571;28;20848;-65
2021/06/30 10:34:53;;;;;;;1.80;0.60;;;20.60;99.90;;;;;;5052762;28;20450;-65
2021/06/30 10:37:22;;;;;;;1.80;0.60;;;20.50;99.90;;;;;;5052245;28;20527;-64
2021/06/30 10:39:51;;;;;;;2.47;0.70;;;20.50;99.90;;;;;;5051348;28;20479;-63
2021/06/30 10:42:29;;;;;;;3.80;0.53;;;20.90;99.90;;;;;;5051949;28;20523;-65
2021/06/30 10:44:59;;;;;;;2.00;0.60;;;21.50;99.90;;;;;;5052386;28;20589;-64
2021/06/30 10:47:31;;;;;;;1.70;0.50;;;21.70;99.90;;;;;;5052038;28;20441;-63
2021/06/30 10:50:29;;;;;;;1.77;0.53;;;21.80;99.90;;;;;;5051462;28;20470;-63
2021/06/30 10:53:22;;;;;;;1.80;0.60;;;21.50;99.90;;;;;;5052200;28;20515;-62
2021/06/30 10:55:51;;;;;;;2.27;0.60;;;21.10;99.90;;;;;;5051608;28;20456;-67
2021/06/30 10:58:20;;;;;;;3.30;0.60;;;20.80;99.90;;;;;;5051589;28;20952;-64
2021/06/30 11:00:52;;;;;;;1.90;0.77;;;20.90;99.90;;;;;;5050990;28;20696;-66
2021/06/30 11:03:27;;;;;;;1.80;0.50;;;21.30;99.90;;;;;;5052235;28;20447;-63
2021/06/30 11:05:55;;;;;;;2.20;0.60;;;21.40;99.90;;;;;;5051630;28;20459;-66
2021/06/30 11:08:43;;;;;;;2.40;0.57;;;21.00;99.90;;;;;;5051800;28;20490;-63
2021/06/30 11:11:11;;;;;;;2.20;0.70;;;20.60;99.90;;;;;;5050751;28;20484;-64
2021/06/30 11:13:59;;;;;;;2.47;0.60;;;20.20;99.90;;;;;;5051621;28;20448;-66
2021/06/30 11:16:54;;;;;;;2.10;0.73;;;19.90;99.90;;;;;;5051340;28;20464;-66
2021/06/30 11:19:46;;;;;;;2.10;0.90;;;19.60;99.90;;;;;;5050353;28;20483;-63
2021/06/30 11:22:25;;;;;;;3.70;0.90;;;19.40;99.90;;;;;;5051044;28;20483;-64
2021/06/30 11:24:52;;;;;;;1.90;0.70;;;19.50;99.90;;;;;;5051484;28;20452;-64
2021/06/30 11:27:47;;;;;;;2.23;0.80;;;19.70;99.90;;;;;;5050730;28;20480;-64
2021/06/30 11:30:36;;;;;;;4.63;0.80;;;19.90;99.90;;;;;;5050144;28;20471;-64
2021/06/30 11:33:13;;;;;;;1.90;0.70;;;20.30;99.90;;;;;;5050832;28;21061;-63
2021/06/30 11:35:44;;;;;;;1.83;0.70;;;20.40;99.90;;;;;;5051255;28;20875;-64
2021/06/30 11:38:29;;;;;;;1.97;0.70;;;20.70;99.90;;;;;;5050360;28;20448;-66
2021/06/30 11:41:06;;;;;;;2.80;0.70;;;20.90;99.90;;;;;;5049818;28;20479;-64
2021/06/30 11:43:36;;;;;;;2.20;0.80;;;20.80;99.90;;;;;;5043387;28;20946;-64
2021/06/30 11:46:06;;;;;;;2.80;1.00;;;20.30;99.90;;;;;;5039037;28;20475;-63
2021/06/30 11:48:36;;;;;;;2.07;0.80;;;19.60;99.90;;;;;;5040547;28;20957;-64
2021/06/30 11:51:04;;;;;;;1.80;0.70;;;18.90;99.90;;;;;;5043888;28;20495;-64
2021/06/30 11:53:38;;;;;;;2.13;0.97;;;18.60;99.90;;;;;;5038620;28;20967;-64
2021/06/30 11:56:06;;;;;;;2.20;0.80;;;18.60;99.90;;;;;;5038500;28;20987;-65
2021/06/30 11:58:45;;;;;;;2.17;0.87;;;18.90;99.90;;;;;;5042621;28;20451;-65
2021/06/30 12:01:21;;;;;;;1.80;0.70;;;18.90;99.90;;;;;;5045619;28;20550;-66
2021/06/30 12:03:50;;;;;;;2.90;0.93;;;18.80;99.90;;;;;;5041869;28;20459;-65
2021/06/30 12:06:25;;;;;;;2.87;1.27;;;18.80;99.90;;;;;;5045273;28;20563;-65
2021/06/30 12:09:12;;;;;;;3.27;0.90;;;18.80;99.90;;;;;;5046273;28;20860;-66
2021/06/30 12:11:40;;;;;;;2.37;0.93;;;18.70;99.90;;;;;;5046231;28;20551;-67
2021/06/30 12:14:09;;;;;;;2.10;0.90;;;18.50;99.90;;;;;;5046767;28;20484;-65
2021/06/30 12:16:54;;;;;;;3.00;1.07;;;18.40;99.90;;;;;;5045690;28;20539;-64
2021/06/30 12:19:32;;;;;;;1.93;0.80;;;18.40;99.90;;;;;;5048457;28;20565;-64
2021/06/30 12:21:59;;;;;;;2.53;1.00;;;18.40;99.90;;;;;;5048899;28;20887;-64
2021/06/30 12:24:27;;;;;;;1.80;0.60;;;18.80;99.90;;;;;;5049448;28;21147;-64
2021/06/30 12:27:02;;;;;;;1.90;0.70;;;19.20;99.90;;;;;;5049692;28;20938;-65
2021/06/30 12:29:29;;;;;;;3.13;0.80;;;19.90;99.90;;;;;;5047573;28;20531;-64
2021/06/30 12:31:57;;;;;;;2.00;0.90;;;20.30;99.90;;;;;;5049438;28;20490;-65
2021/06/30 12:34:25;;;;;;;2.10;0.80;;;20.70;99.90;;;;;;5049900;28;20842;-69
2021/06/30 12:36:53;;;;;;;3.30;0.77;;;21.00;99.90;;;;;;5049327;28;20897;-65
2021/06/30 12:39:25;;;;;;;2.30;0.90;;;21.40;99.90;;;;;;5048807;28;20494;-66
2021/06/30 12:41:58;;;;;;;2.70;0.80;;;21.60;99.90;;;;;;5049307;28;20535;-65
2021/06/30 12:44:26;;;;;;;2.23;0.80;;;21.30;99.90;;;;;;5049995;28;20428;-64
2021/06/30 12:47:10;;;;;;;2.10;0.90;;;21.10;99.90;;;;;;5049127;28;20531;-63
2021/06/30 12:49:39;;;;;;;2.30;1.00;;;20.70;99.90;;;;;;5047779;28;20482;-63
2021/06/30 12:52:06;;;;;;;1.90;0.80;;;20.30;99.90;;;;;;5049111;28;20480;-64
2021/06/30 12:54:33;;;;;;;1.90;0.80;;;19.90;99.90;;;;;;5049449;28;20444;-66
2021/06/30 12:57:01;;;;;;;2.00;0.80;;;19.80;99.90;;;;;;5049328;28;20539;-62